createdAt,value
2022-09-12T00:00:11.040Z,99724.15
2022-09-12T00:06:49.933Z,99720.88
2022-09-12T00:13:14.225Z,99728.24
2022-09-12T00:19:38.425Z,99725.72
2022-09-12T00:25:55.660Z,99727.15
2022-09-12T00:32:20.021Z,99725.29
2022-09-12T00:38:44.439Z,99730.23
2022-09-12T00:45:11.710Z,99728.52
2022-09-12T00:51:35.954Z,99731.75
2022-09-12T00:58:00.194Z,99732.67
2022-09-12T01:04:18.070Z,99736.58
2022-09-12T01:10:42.472Z,99742.20
2022-09-12T01:17:07.022Z,99745.56
2022-09-12T01:23:46.484Z,99746.15
2022-09-12T01:30:25.845Z,99749.23
2022-09-12T01:37:05.017Z,99752.40
2022-09-12T01:43:38.128Z,99754.91
2022-09-12T01:50:17.731Z,99756.94
2022-09-12T01:56:47.938Z,99761.00
2022-09-12T02:03:12.224Z,99762.11
2022-09-12T02:09:36.457Z,99765.64
2022-09-12T02:16:00.752Z,99765.18
2022-09-12T02:22:27.532Z,99764.00
2022-09-12T02:29:12.965Z,99770.15
2022-09-12T02:35:43.190Z,99775.13
2022-09-12T02:42:07.488Z,99773.48
2022-09-12T02:48:37.464Z,99773.48
2022-09-12T02:55:01.726Z,99775.67
2022-09-12T03:01:25.982Z,99780.95
2022-09-12T03:07:55.901Z,99790.92
2022-09-12T03:14:25.840Z,99797.11
2022-09-12T03:20:59.150Z,99800.02
2022-09-12T03:27:30.602Z,99805.60
2022-09-12T03:33:55.069Z,99815.65
2022-09-12T03:40:19.444Z,99818.32
2022-09-12T03:46:43.666Z,99824.22
2022-09-12T03:53:08.086Z,99830.54
2022-09-12T03:59:32.357Z,99837.04
2022-09-12T04:05:56.701Z,99840.40
2022-09-12T04:12:20.925Z,99837.55
2022-09-12T04:18:45.373Z,99840.73
2022-09-12T04:25:10.175Z,99845.30
2022-09-12T04:31:34.481Z,99846.23
2022-09-12T04:37:58.792Z,99851.54
2022-09-12T04:44:23.056Z,99858.92
2022-09-12T04:50:47.383Z,99862.11
2022-09-12T04:57:11.795Z,99870.71
2022-09-12T05:03:34.776Z,99872.17
2022-09-12T05:09:58.994Z,99874.13
2022-09-12T05:16:23.409Z,99877.16
2022-09-12T05:22:47.813Z,99882.64
2022-09-12T05:29:12.014Z,99890.70
2022-09-12T05:35:36.350Z,99895.10
2022-09-12T05:42:03.632Z,99895.65
2022-09-12T05:48:27.808Z,99895.54
2022-09-12T05:54:52.072Z,99893.48
2022-09-12T06:01:16.717Z,99895.05
2022-09-12T06:07:40.952Z,99896.56
2022-09-12T06:14:05.264Z,99900.17
2022-09-12T06:20:29.500Z,99899.27
2022-09-12T06:26:53.741Z,99900.40
2022-09-12T06:33:16.704Z,99903.18
2022-09-12T06:39:41.252Z,99904.87
2022-09-12T06:46:05.953Z,99914.43
2022-09-12T06:52:30.001Z,99914.70
2022-09-12T06:58:54.322Z,99922.70
2022-09-12T07:05:18.518Z,99926.54
2022-09-12T07:11:55.069Z,99929.55
2022-09-12T07:18:19.336Z,99938.58
2022-09-12T07:24:43.676Z,99937.44
2022-09-12T07:31:07.998Z,99945.87
2022-09-12T07:37:32.231Z,99953.92
2022-09-12T07:43:56.458Z,99967.66
2022-09-12T07:50:20.704Z,99974.52
2022-09-12T07:56:45.003Z,99979.41
2022-09-12T08:03:12.475Z,99982.93
2022-09-12T08:09:36.988Z,99982.90
2022-09-12T08:16:01.274Z,99986.26
2022-09-12T08:22:28.474Z,99992.73
2022-09-12T08:28:52.652Z,99993.53
2022-09-12T08:35:16.916Z,99996.77
2022-09-12T08:41:41.658Z,99996.84
2022-09-12T08:48:11.664Z,99997.66
2022-09-12T08:54:29.085Z,99998.73
2022-09-12T09:01:15.847Z,99999.42
2022-09-12T09:07:49.428Z,100005.98
2022-09-12T09:14:15.962Z,100010.80
2022-09-12T09:20:43.044Z,100010.02
2022-09-12T09:27:39.385Z,100012.38
2022-09-12T09:34:03.380Z,100011.54
2022-09-12T09:40:25.163Z,100016.52
2022-09-12T09:46:49.600Z,100018.18
2022-09-12T09:53:13.865Z,100019.67
2022-09-12T09:59:38.613Z,100025.90
2022-09-12T10:06:03.180Z,100037.08
2022-09-12T10:12:27.433Z,100046.48
2022-09-12T10:18:51.740Z,100055.36
2022-09-12T10:25:22.086Z,100053.82
2022-09-12T10:31:46.401Z,100061.31
2022-09-12T10:38:16.909Z,100060.11
2022-09-12T10:44:47.038Z,100063.15
2022-09-12T10:51:11.730Z,100068.30
2022-09-12T10:57:46.998Z,100074.39
2022-09-12T11:04:13.960Z,100074.60
2022-09-12T11:10:53.760Z,100077.15
2022-09-12T11:17:39.143Z,100083.80
2022-09-12T11:24:05.813Z,100088.48
2022-09-12T11:30:45.075Z,100090.72
2022-09-12T11:37:11.412Z,100092.74
2022-09-12T11:43:42.920Z,100093.29
2022-09-12T11:50:13.421Z,100093.29
2022-09-12T11:56:40.645Z,100095.39
2022-09-12T12:03:07.456Z,100101.14
2022-09-12T12:09:31.662Z,100098.17
2022-09-12T12:15:56.033Z,100098.84
2022-09-12T12:22:26.413Z,100095.92
2022-09-12T12:28:53.968Z,100100.09
2022-09-12T12:35:19.821Z,100101.80
2022-09-12T12:41:59.114Z,100108.17
2022-09-12T12:48:26.069Z,100103.73
2022-09-12T12:54:43.794Z,100104.94
2022-09-12T13:01:26.758Z,100102.95
2022-09-12T13:07:56.834Z,100103.73
2022-09-12T13:14:33.506Z,100109.73
2022-09-12T13:21:03.965Z,100115.35
2022-09-12T13:27:28.282Z,100108.07
2022-09-12T13:33:52.743Z,100107.27
2022-09-12T13:40:19.988Z,100108.45
2022-09-12T13:46:44.275Z,100109.55
2022-09-12T13:53:08.701Z,100108.70
2022-09-12T13:59:32.978Z,100109.27
2022-09-12T14:05:51.857Z,100111.00
2022-09-12T14:12:08.833Z,100113.50
2022-09-12T14:18:33.133Z,100117.52
2022-09-12T14:24:57.449Z,100118.61
2022-09-12T14:31:39.872Z,100118.41
2022-09-12T14:38:04.202Z,100123.65
2022-09-12T14:44:28.702Z,100122.28
2022-09-12T14:50:55.567Z,100119.98
2022-09-12T14:57:03.617Z,100122.96
2022-09-12T15:03:27.882Z,100126.77
2022-09-12T15:09:55.127Z,100131.61
2022-09-12T15:16:19.651Z,100137.59
2022-09-12T15:22:43.983Z,100137.66
2022-09-12T15:29:21.015Z,100139.42
2022-09-12T15:35:45.284Z,100137.02
2022-09-12T15:42:15.497Z,100139.52
2022-09-12T15:48:39.889Z,100141.28
2022-09-12T15:55:04.312Z,100147.96
2022-09-12T16:01:28.835Z,100149.38
2022-09-12T16:07:53.105Z,100145.61
2022-09-12T16:14:17.383Z,100147.25
2022-09-12T16:20:41.741Z,100148.30
2022-09-12T16:27:06.166Z,100148.02
2022-09-12T16:33:30.456Z,100143.05
2022-09-12T16:39:54.804Z,100142.34
2022-09-12T16:46:19.187Z,100141.91
2022-09-12T16:52:43.716Z,100144.92
2022-09-12T16:59:08.006Z,100146.52
2022-09-12T17:05:32.317Z,100155.80
2022-09-12T17:12:02.545Z,100156.41
2022-09-12T17:18:26.783Z,100155.39
2022-09-12T17:24:43.900Z,100162.44
2022-09-12T17:31:08.442Z,100160.05
2022-09-12T17:37:32.802Z,100168.29
2022-09-12T17:43:57.049Z,100163.79
2022-09-12T17:50:31.704Z,100162.80
2022-09-12T17:56:57.092Z,100165.31
2022-09-12T18:03:21.304Z,100162.20
2022-09-12T18:09:45.562Z,100161.52
2022-09-12T18:16:10.095Z,100162.27
2022-09-12T18:22:28.985Z,100165.27
2022-09-12T18:28:53.291Z,100161.65
2022-09-12T18:35:17.592Z,100159.27
2022-09-12T18:41:41.898Z,100160.51
2022-09-12T18:48:05.340Z,100157.96
2022-09-12T18:54:29.993Z,100159.38
2022-09-12T19:00:54.612Z,100164.14
2022-09-12T19:07:21.647Z,100158.41
2022-09-12T19:13:45.975Z,100159.52
2022-09-12T19:20:10.423Z,100159.52
2022-09-12T19:26:40.361Z,100151.40
2022-09-12T19:33:04.703Z,100151.04
2022-09-12T19:39:28.985Z,100156.33
2022-09-12T19:45:53.293Z,100154.64
2022-09-12T19:52:17.662Z,100151.38
2022-09-12T19:58:43.392Z,100149.83
2022-09-12T20:05:07.689Z,100150.22
2022-09-12T20:11:31.876Z,100147.30
2022-09-12T20:17:56.179Z,100143.69
2022-09-12T20:24:20.493Z,100141.48
2022-09-12T20:30:44.911Z,100139.25
2022-09-12T20:37:09.334Z,100135.96
2022-09-12T20:43:33.626Z,100133.73
2022-09-12T20:49:57.827Z,100128.86
2022-09-12T20:56:11.869Z,100132.41
2022-09-12T21:02:36.256Z,100135.23
2022-09-12T21:09:00.830Z,100135.80
2022-09-12T21:15:25.293Z,100137.45
2022-09-12T21:21:49.539Z,100138.37
2022-09-12T21:28:13.798Z,100140.69
2022-09-12T21:34:38.136Z,100137.83
2022-09-12T21:40:52.374Z,100132.46
2022-09-12T21:47:16.569Z,100129.80
2022-09-12T21:53:40.791Z,100135.77
2022-09-12T22:00:05.086Z,100127.49
2022-09-12T22:06:22.295Z,100121.09
2022-09-12T22:12:49.733Z,100115.77
2022-09-12T22:19:14.019Z,100111.16
2022-09-12T22:25:38.334Z,100111.26
2022-09-12T22:32:02.785Z,100106.64
2022-09-12T22:38:27.063Z,100103.16
2022-09-12T22:44:51.393Z,100109.55
2022-09-12T22:51:15.672Z,100113.81
2022-09-12T22:57:40.087Z,100107.27
2022-09-12T23:04:04.291Z,100113.42
2022-09-12T23:10:28.591Z,100112.08
2022-09-12T23:16:55.821Z,100105.02
2022-09-12T23:23:20.115Z,100106.00
2022-09-12T23:29:44.407Z,100103.26
2022-09-12T23:36:08.747Z,100104.02
2022-09-12T23:42:33.089Z,100098.36
2022-09-12T23:48:57.354Z,100092.46
2022-09-12T23:55:21.664Z,100082.58
